Terminal Aerodrome Forecast
Issued by NWS

Home | Current Version | Previous Version | Text Only | Print | Product List | Glossary On
Versions: 1 2 3 4 5 6 7 8 9 10 11 12 13 14
881
FTUS44 KBMX 221720
TAFANB
TAF
KANB 221720Z 2218/2318 16008KT P6SM SCT019 SCT024 BKN040
     FM222100 34004KT 6SM -SHRA VCTS OVC025CB
     FM230000 01003KT 4SM RA VCTS BKN010CB OVC025
     FM231200 14003KT 6SM SHRA VCTS BKN010CB=

USA.gov is the U.S. government's official web portal to all federal, state and local government web resources and services.